createdAt,value
2018-11-04T00:00:48.579Z,8.70
2018-11-04T00:03:17.281Z,8.70
2018-11-04T00:05:47.959Z,8.70
2018-11-04T00:08:16.281Z,8.70
2018-11-04T00:10:44.999Z,8.70
2018-11-04T00:13:13.481Z,8.70
2018-11-04T00:15:41.680Z,8.70
2018-11-04T00:18:10.004Z,8.70
2018-11-04T00:20:38.626Z,8.70
2018-11-04T00:23:08.523Z,8.70
2018-11-04T00:25:37.957Z,8.70
2018-11-04T00:28:06.866Z,8.70
2018-11-04T00:30:35.272Z,8.70
2018-11-04T00:33:03.957Z,8.80
2018-11-04T00:35:33.202Z,8.80
2018-11-04T00:38:01.604Z,8.80
2018-11-04T00:40:30.154Z,8.70
2018-11-04T00:42:58.834Z,8.80
2018-11-04T00:45:27.286Z,8.80
2018-11-04T00:47:56.751Z,8.80
2018-11-04T00:50:25.324Z,8.80
2018-11-04T00:52:54.607Z,8.80
2018-11-04T00:55:23.171Z,8.80
2018-11-04T00:57:51.617Z,8.90
2018-11-04T01:00:20.332Z,8.80
2018-11-04T01:02:50.058Z,8.90
2018-11-04T01:05:19.063Z,9.00
2018-11-04T01:07:47.315Z,8.90
2018-11-04T01:10:15.603Z,8.80
2018-11-04T01:12:44.995Z,8.80
2018-11-04T01:15:14.391Z,8.70
2018-11-04T01:17:43.193Z,8.80
2018-11-04T01:20:14.430Z,8.80
2018-11-04T01:22:43.143Z,8.70
2018-11-04T01:25:12.520Z,8.80
2018-11-04T01:27:41.308Z,8.80
2018-11-04T01:30:11.737Z,8.80
2018-11-04T01:32:41.409Z,8.90
2018-11-04T01:35:10.136Z,8.90
2018-11-04T01:37:38.819Z,9.00
2018-11-04T01:40:08.485Z,9.10
2018-11-04T01:42:37.259Z,9.10
2018-11-04T01:45:07.262Z,9.20
2018-11-04T01:47:35.848Z,9.20
2018-11-04T01:50:05.844Z,9.20
2018-11-04T01:52:34.086Z,9.30
2018-11-04T01:55:02.584Z,9.30
2018-11-04T01:57:31.276Z,9.30
2018-11-04T01:59:59.826Z,9.30
2018-11-04T02:02:28.934Z,9.30
2018-11-04T02:04:57.967Z,9.30
2018-11-04T02:07:27.454Z,9.40
2018-11-04T02:09:56.451Z,9.40
2018-11-04T02:12:24.930Z,9.40
2018-11-04T02:14:54.268Z,9.40
2018-11-04T02:17:23.629Z,9.30
2018-11-04T02:19:51.864Z,9.30
2018-11-04T02:22:20.185Z,9.30
2018-11-04T02:24:49.011Z,9.30
2018-11-04T02:27:18.587Z,9.30
2018-11-04T02:29:46.804Z,9.20
2018-11-04T02:32:15.103Z,9.20
2018-11-04T02:34:43.675Z,9.20
2018-11-04T02:37:11.952Z,9.20
2018-11-04T02:39:40.387Z,9.20
2018-11-04T02:42:08.927Z,9.20
2018-11-04T02:44:37.342Z,9.30
2018-11-04T02:47:06.065Z,9.20
2018-11-04T02:49:34.553Z,9.20
2018-11-04T02:52:03.543Z,9.20
2018-11-04T02:54:32.317Z,9.20
2018-11-04T02:57:00.974Z,9.30
2018-11-04T02:59:29.446Z,9.20
2018-11-04T03:01:57.945Z,9.30
2018-11-04T03:04:26.795Z,9.30
2018-11-04T03:06:55.454Z,9.30
2018-11-04T03:09:24.502Z,9.30
2018-11-04T03:11:53.158Z,9.30
2018-11-04T03:17:03.058Z,9.30
2018-11-04T03:19:31.709Z,9.30
2018-11-04T03:22:00.630Z,9.30
2018-11-04T03:24:29.813Z,9.30
2018-11-04T03:26:59.126Z,9.30
2018-11-04T03:29:27.452Z,9.30
2018-11-04T03:31:56.215Z,9.30
2018-11-04T03:34:24.949Z,9.30
2018-11-04T03:36:53.855Z,9.30
2018-11-04T03:39:23.468Z,9.30
2018-11-04T03:41:51.753Z,9.30
2018-11-04T03:44:20.019Z,9.20
2018-11-04T03:46:48.420Z,9.20
2018-11-04T03:49:17.414Z,9.20
2018-11-04T03:51:45.941Z,9.20
2018-11-04T03:54:14.205Z,9.20
2018-11-04T03:56:42.860Z,9.20
2018-11-04T03:59:11.091Z,9.20
2018-11-04T04:01:39.504Z,9.20
2018-11-04T04:04:07.743Z,9.20
2018-11-04T04:06:36.496Z,9.10
2018-11-04T04:09:07.628Z,9.10
2018-11-04T04:11:37.118Z,9.10
2018-11-04T04:14:06.759Z,9.10
2018-11-04T04:16:35.192Z,9.10
2018-11-04T04:19:03.882Z,9.10
2018-11-04T04:21:32.315Z,9.10
2018-11-04T04:24:00.751Z,9.10
2018-11-04T04:26:30.012Z,9.10
2018-11-04T04:28:58.529Z,9.10
2018-11-04T04:31:27.451Z,9.10
2018-11-04T04:33:55.829Z,9.00
2018-11-04T04:36:24.307Z,9.10
2018-11-04T04:38:52.552Z,9.10
2018-11-04T04:41:21.139Z,9.10
2018-11-04T04:43:50.354Z,9.00
2018-11-04T04:46:19.047Z,9.00
2018-11-04T04:48:47.766Z,9.00
2018-11-04T04:51:16.038Z,9.00
2018-11-04T04:53:44.920Z,9.00
2018-11-04T04:56:13.190Z,8.90
2018-11-04T04:58:41.570Z,8.90
2018-11-04T05:01:10.267Z,8.90
2018-11-04T05:03:39.406Z,8.80
2018-11-04T05:06:08.187Z,8.80
2018-11-04T05:08:37.132Z,8.70
2018-11-04T05:11:06.093Z,8.70
2018-11-04T05:13:34.391Z,8.70
2018-11-04T05:16:03.103Z,8.70
2018-11-04T05:18:31.660Z,8.70
2018-11-04T05:20:59.894Z,8.70
2018-11-04T05:23:28.503Z,8.70
2018-11-04T05:25:56.828Z,8.70
2018-11-04T05:28:25.266Z,8.80
2018-11-04T05:30:54.844Z,8.80
2018-11-04T05:33:23.109Z,8.80
2018-11-04T05:35:51.950Z,8.80
2018-11-04T05:38:20.451Z,8.80
2018-11-04T05:40:49.155Z,8.70
2018-11-04T05:43:17.815Z,8.70
2018-11-04T05:45:46.486Z,8.80
2018-11-04T05:48:14.743Z,8.80
2018-11-04T05:50:42.991Z,8.80
2018-11-04T05:53:12.269Z,8.70
2018-11-04T05:55:40.731Z,8.70
2018-11-04T05:58:09.014Z,8.60
2018-11-04T06:00:37.197Z,8.70
2018-11-04T06:03:06.458Z,8.70
2018-11-04T06:05:34.979Z,8.70
2018-11-04T06:08:03.227Z,8.70
2018-11-04T06:10:31.703Z,8.70
2018-11-04T06:13:00.219Z,8.70
2018-11-04T06:15:28.544Z,8.70
2018-11-04T06:17:56.783Z,8.80
2018-11-04T06:20:25.024Z,8.80
2018-11-04T06:22:53.415Z,8.80
2018-11-04T06:25:21.611Z,8.80
2018-11-04T06:27:50.295Z,8.80
2018-11-04T06:30:18.931Z,8.80
2018-11-04T06:32:47.623Z,8.80
2018-11-04T06:35:15.921Z,8.80
2018-11-04T06:37:44.113Z,8.80
2018-11-04T06:40:12.896Z,8.80
2018-11-04T06:42:41.126Z,8.80
2018-11-04T06:45:10.031Z,8.80
2018-11-04T06:47:38.532Z,8.80
2018-11-04T06:50:08.887Z,8.80
2018-11-04T06:52:37.279Z,8.90
2018-11-04T06:55:06.499Z,8.90
2018-11-04T06:57:34.791Z,9.00
2018-11-04T07:00:03.072Z,8.90
2018-11-04T07:02:31.215Z,8.90
2018-11-04T07:04:59.643Z,8.90
2018-11-04T07:07:28.385Z,9.00
2018-11-04T07:09:57.159Z,9.00
2018-11-04T07:12:26.327Z,9.00
2018-11-04T07:14:55.098Z,9.00
2018-11-04T07:17:24.819Z,9.00
2018-11-04T07:19:53.725Z,9.10
2018-11-04T07:22:23.094Z,9.10
2018-11-04T07:24:51.482Z,9.10
2018-11-04T07:27:19.663Z,9.10
2018-11-04T07:29:48.217Z,9.10
2018-11-04T07:32:16.560Z,9.10
2018-11-04T07:34:44.646Z,9.10
2018-11-04T07:37:12.874Z,9.10
2018-11-04T07:39:41.179Z,9.20
2018-11-04T07:42:09.457Z,9.20
2018-11-04T07:44:37.666Z,9.10
2018-11-04T07:47:06.169Z,9.10
2018-11-04T07:49:34.431Z,9.20
2018-11-04T07:52:02.939Z,9.20
2018-11-04T07:54:31.739Z,9.30
2018-11-04T07:57:00.254Z,9.30
2018-11-04T07:59:28.469Z,9.40
2018-11-04T08:01:56.936Z,9.40
2018-11-04T08:04:25.687Z,9.50
2018-11-04T08:06:54.227Z,9.60
2018-11-04T08:09:22.672Z,9.60
2018-11-04T08:11:50.876Z,9.80
2018-11-04T08:14:19.334Z,9.90
2018-11-04T08:16:47.752Z,9.90
2018-11-04T08:19:15.967Z,10.00
2018-11-04T08:21:44.843Z,10.10
2018-11-04T08:24:13.734Z,10.20
2018-11-04T08:26:42.015Z,10.10
2018-11-04T08:29:10.253Z,10.10
2018-11-04T08:31:38.470Z,10.10
2018-11-04T08:34:06.815Z,10.10
2018-11-04T08:36:35.157Z,10.20
2018-11-04T08:39:04.594Z,10.30
2018-11-04T08:41:33.278Z,10.50
2018-11-04T08:44:01.486Z,10.50
2018-11-04T08:46:29.692Z,10.80
2018-11-04T08:48:57.878Z,10.90
2018-11-04T08:51:26.136Z,11.10
2018-11-04T08:53:54.335Z,10.80
2018-11-04T08:56:22.914Z,10.90
2018-11-04T08:58:51.348Z,11.00
2018-11-04T09:01:19.618Z,11.40
2018-11-04T09:03:47.961Z,11.50
2018-11-04T09:06:16.930Z,11.60
2018-11-04T09:08:46.244Z,11.60
2018-11-04T09:11:15.673Z,11.70
2018-11-04T09:13:44.362Z,11.90
2018-11-04T09:16:13.187Z,12.10
2018-11-04T09:18:42.580Z,12.20
2018-11-04T09:21:11.893Z,12.00
2018-11-04T09:23:40.645Z,11.70
2018-11-04T09:26:08.925Z,11.70
2018-11-04T09:28:37.250Z,11.60
2018-11-04T09:31:06.287Z,11.40
2018-11-04T09:33:34.610Z,11.30
2018-11-04T09:36:03.056Z,11.40
2018-11-04T09:38:31.543Z,11.50
2018-11-04T09:40:59.791Z,11.50
2018-11-04T09:43:28.019Z,11.60
2018-11-04T09:45:56.444Z,11.70
2018-11-04T09:48:24.851Z,11.70
2018-11-04T09:50:53.292Z,11.70
2018-11-04T09:53:21.579Z,11.50
2018-11-04T09:55:49.829Z,11.30
2018-11-04T09:58:21.055Z,11.30
2018-11-04T10:00:49.374Z,11.30
2018-11-04T10:03:17.681Z,11.50
2018-11-04T10:05:46.196Z,11.70
2018-11-04T10:08:14.509Z,11.70
2018-11-04T10:10:42.792Z,11.70
2018-11-04T10:13:11.233Z,11.70
2018-11-04T10:15:39.658Z,11.70
2018-11-04T10:18:08.186Z,11.70
2018-11-04T10:20:36.947Z,11.70
2018-11-04T10:23:05.310Z,11.80
2018-11-04T10:25:34.034Z,11.70
2018-11-04T10:28:02.455Z,11.60
2018-11-04T10:30:30.808Z,11.60
2018-11-04T10:32:58.988Z,11.70
2018-11-04T10:35:27.230Z,11.70
2018-11-04T10:37:55.541Z,11.80
2018-11-04T10:40:23.896Z,12.10
2018-11-04T10:42:52.702Z,12.10
2018-11-04T10:45:21.171Z,12.20
2018-11-04T10:47:49.574Z,12.40
2018-11-04T10:50:17.826Z,12.40
2018-11-04T10:52:46.114Z,12.50
2018-11-04T10:55:14.318Z,12.60
2018-11-04T10:57:42.642Z,12.80
2018-11-04T11:00:16.658Z,12.80
2018-11-04T11:02:45.595Z,12.70
2018-11-04T11:05:14.320Z,12.70
2018-11-04T11:07:42.572Z,13.00
2018-11-04T11:10:11.396Z,12.90
2018-11-04T11:12:40.157Z,13.00
2018-11-04T11:15:09.756Z,12.70
2018-11-04T11:17:38.518Z,13.00
2018-11-04T11:20:08.844Z,13.00
2018-11-04T11:22:38.226Z,13.00
2018-11-04T11:25:08.942Z,12.80
2018-11-04T11:27:37.553Z,13.00
2018-11-04T11:30:06.215Z,13.10
2018-11-04T11:32:34.390Z,13.10
2018-11-04T11:35:03.025Z,13.20
2018-11-04T11:37:31.532Z,13.20
2018-11-04T11:40:00.013Z,13.20
2018-11-04T11:42:28.707Z,13.10
2018-11-04T11:44:57.181Z,13.10
2018-11-04T11:47:25.465Z,13.00
2018-11-04T11:49:53.811Z,13.20
2018-11-04T11:52:22.101Z,13.20
2018-11-04T11:54:50.697Z,13.20
2018-11-04T11:57:19.183Z,13.10
2018-11-04T11:59:47.401Z,13.10
2018-11-04T12:02:16.084Z,13.10
2018-11-04T12:04:44.224Z,13.20
2018-11-04T12:07:12.432Z,13.20
2018-11-04T12:09:40.848Z,13.20
2018-11-04T12:12:09.150Z,13.10
2018-11-04T12:14:37.404Z,13.10
2018-11-04T12:17:05.598Z,13.10
2018-11-04T12:19:33.787Z,13.10
2018-11-04T12:22:02.279Z,13.10
2018-11-04T12:24:30.525Z,13.00
2018-11-04T12:26:58.803Z,13.00
2018-11-04T12:29:27.029Z,13.00
2018-11-04T12:31:55.228Z,13.00
2018-11-04T12:34:23.462Z,13.10
2018-11-04T12:36:52.126Z,12.80
2018-11-04T12:39:20.967Z,12.90
2018-11-04T12:41:49.469Z,12.80
2018-11-04T12:44:17.793Z,12.80
2018-11-04T12:46:45.980Z,12.80
2018-11-04T12:49:14.570Z,12.90
2018-11-04T12:51:43.490Z,12.90
2018-11-04T12:54:12.490Z,12.90
2018-11-04T12:56:41.081Z,13.00
2018-11-04T12:59:09.968Z,13.10
2018-11-04T13:01:38.927Z,13.10
2018-11-04T13:04:07.680Z,13.10
2018-11-04T13:06:36.314Z,13.20
2018-11-04T13:09:07.485Z,13.20
2018-11-04T13:11:36.588Z,13.10
2018-11-04T13:14:05.116Z,13.00
2018-11-04T13:16:33.710Z,13.20
2018-11-04T13:19:02.118Z,13.20
2018-11-04T13:21:30.599Z,13.20
2018-11-04T13:23:59.218Z,13.20
2018-11-04T13:26:27.489Z,13.10
2018-11-04T13:28:55.684Z,13.30
2018-11-04T13:31:24.120Z,13.40
2018-11-04T13:33:52.630Z,13.20
2018-11-04T13:36:21.051Z,13.10
2018-11-04T13:38:49.304Z,13.20
2018-11-04T13:41:17.487Z,13.20
2018-11-04T13:43:45.919Z,13.20
2018-11-04T13:46:14.957Z,13.20
2018-11-04T13:48:43.609Z,13.20
2018-11-04T13:51:12.179Z,13.10
2018-11-04T13:53:40.838Z,13.10
2018-11-04T13:56:09.644Z,13.10
2018-11-04T13:58:39.165Z,12.80
2018-11-04T14:01:07.877Z,12.70
2018-11-04T14:03:36.865Z,12.80
2018-11-04T14:06:05.498Z,12.80
2018-11-04T14:08:34.152Z,12.70
2018-11-04T14:11:02.867Z,12.50
2018-11-04T14:13:31.668Z,12.60
2018-11-04T14:16:00.858Z,12.60
2018-11-04T14:18:29.559Z,12.50
2018-11-04T14:20:58.340Z,12.50
2018-11-04T14:23:27.118Z,12.60
2018-11-04T14:25:55.825Z,12.60
2018-11-04T14:28:24.606Z,12.50
2018-11-04T14:30:53.500Z,12.50
2018-11-04T14:33:22.305Z,12.40
2018-11-04T14:35:51.331Z,12.40
2018-11-04T14:38:19.563Z,12.30
2018-11-04T14:40:47.909Z,12.30
2018-11-04T14:43:16.421Z,12.30
2018-11-04T14:45:44.831Z,12.30
2018-11-04T14:48:13.075Z,12.10
2018-11-04T14:50:41.460Z,12.00
2018-11-04T14:53:09.849Z,11.90
2018-11-04T14:55:38.106Z,11.90
2018-11-04T14:58:06.883Z,11.70
2018-11-04T15:00:35.246Z,11.70
2018-11-04T15:03:04.391Z,11.70
2018-11-04T15:05:32.809Z,11.60
2018-11-04T15:08:01.412Z,11.60
2018-11-04T15:10:29.665Z,11.50
2018-11-04T15:12:58.136Z,11.30
2018-11-04T15:15:26.446Z,11.30
2018-11-04T15:17:54.716Z,11.20
2018-11-04T15:20:22.890Z,11.20
2018-11-04T15:22:51.923Z,11.10
2018-11-04T15:25:21.695Z,11.00
2018-11-04T15:27:50.892Z,10.90
2018-11-04T15:30:19.665Z,10.90
2018-11-04T15:32:48.422Z,10.80
2018-11-04T15:35:17.507Z,10.70
2018-11-04T15:37:46.533Z,10.60
2018-11-04T15:40:16.099Z,10.60
2018-11-04T15:42:44.780Z,10.60
2018-11-04T15:45:14.647Z,10.50
2018-11-04T15:47:43.365Z,10.50
2018-11-04T15:50:16.364Z,10.40
2018-11-04T15:52:45.061Z,10.30
2018-11-04T15:55:13.296Z,10.20
2018-11-04T15:57:41.569Z,10.10
2018-11-04T16:00:11.679Z,10.00
2018-11-04T16:02:39.952Z,9.90
2018-11-04T16:05:09.688Z,9.90
2018-11-04T16:07:38.042Z,9.80
2018-11-04T16:10:07.706Z,9.70
2018-11-04T16:12:36.153Z,9.70
2018-11-04T16:15:05.411Z,9.70
2018-11-04T16:17:35.136Z,9.60
2018-11-04T16:20:03.386Z,9.60
2018-11-04T16:22:31.655Z,9.50
2018-11-04T16:25:00.327Z,9.50
2018-11-04T16:27:29.772Z,9.40
2018-11-04T16:29:58.038Z,9.40
2018-11-04T16:32:26.492Z,9.40
2018-11-04T16:34:54.968Z,9.40
2018-11-04T16:37:24.205Z,9.40
2018-11-04T16:39:53.547Z,9.30
2018-11-04T16:42:22.507Z,9.30
2018-11-04T16:44:51.174Z,9.30
2018-11-04T16:47:19.405Z,9.30
2018-11-04T16:49:47.706Z,9.20
2018-11-04T16:52:16.005Z,9.10
2018-11-04T16:54:44.307Z,9.10
2018-11-04T16:57:12.676Z,9.10
2018-11-04T16:59:42.128Z,9.10
2018-11-04T17:02:11.222Z,9.10
2018-11-04T17:04:39.911Z,9.00
2018-11-04T17:07:08.115Z,9.00
2018-11-04T17:09:36.679Z,8.90
2018-11-04T17:12:06.569Z,8.90
2018-11-04T17:14:35.366Z,8.80
2018-11-04T17:17:04.471Z,8.70
2018-11-04T17:19:33.468Z,8.60
2018-11-04T17:22:02.514Z,8.60
2018-11-04T17:24:30.763Z,8.50
2018-11-04T17:26:59.065Z,8.50
2018-11-04T17:29:27.495Z,8.50
2018-11-04T17:31:55.974Z,8.50
2018-11-04T17:34:24.211Z,8.50
2018-11-04T17:36:52.799Z,8.50
2018-11-04T17:39:21.098Z,8.40
2018-11-04T17:41:49.401Z,8.40
2018-11-04T17:44:17.832Z,8.40
2018-11-04T17:46:46.467Z,8.30
2018-11-04T17:49:14.940Z,8.20
2018-11-04T17:51:43.162Z,8.20
2018-11-04T17:54:11.491Z,8.30
2018-11-04T17:56:40.375Z,8.20
2018-11-04T17:59:08.825Z,8.20
2018-11-04T18:01:37.343Z,8.30
2018-11-04T18:04:06.438Z,8.20
2018-11-04T18:06:35.856Z,8.10
2018-11-04T18:09:05.069Z,8.10
2018-11-04T18:11:33.524Z,8.00
2018-11-04T18:14:02.397Z,8.00
2018-11-04T18:16:31.445Z,7.90
2018-11-04T18:19:00.023Z,7.90
2018-11-04T18:21:29.189Z,7.90
2018-11-04T18:23:57.505Z,7.90
2018-11-04T18:26:26.484Z,7.80
2018-11-04T18:28:55.171Z,7.80
2018-11-04T18:31:23.389Z,7.80
2018-11-04T18:33:52.232Z,7.80
2018-11-04T18:36:21.123Z,7.80
2018-11-04T18:38:49.905Z,7.80
2018-11-04T18:41:18.151Z,7.70
2018-11-04T18:43:46.469Z,7.80
2018-11-04T18:46:14.770Z,7.80
2018-11-04T18:48:43.459Z,7.80
2018-11-04T18:51:11.874Z,7.80
2018-11-04T18:53:40.625Z,7.80
2018-11-04T18:56:09.907Z,7.60
2018-11-04T18:58:39.391Z,7.40
2018-11-04T19:01:07.892Z,7.40
2018-11-04T19:03:36.748Z,7.30
2018-11-04T19:06:05.341Z,7.10
2018-11-04T19:08:33.821Z,7.10
2018-11-04T19:11:02.981Z,7.00
2018-11-04T19:13:33.046Z,7.10
2018-11-04T19:16:02.716Z,7.20
2018-11-04T19:18:31.647Z,7.20
2018-11-04T19:20:59.929Z,7.20
2018-11-04T19:23:28.146Z,7.10
2018-11-04T19:25:57.175Z,7.20
2018-11-04T19:28:25.992Z,7.10
2018-11-04T19:30:54.458Z,7.20
2018-11-04T19:33:23.206Z,7.30
2018-11-04T19:35:51.835Z,7.30
2018-11-04T19:38:20.865Z,7.30
2018-11-04T19:40:49.082Z,7.30
2018-11-04T19:43:19.038Z,7.30
2018-11-04T19:45:47.903Z,7.30
2018-11-04T19:48:16.685Z,7.30
2018-11-04T19:50:44.843Z,7.30
2018-11-04T19:53:14.591Z,7.30
2018-11-04T19:55:43.171Z,7.30
2018-11-04T19:58:11.662Z,7.30
2018-11-04T20:00:39.908Z,7.40
2018-11-04T20:03:09.316Z,7.70
2018-11-04T20:05:38.039Z,7.90
2018-11-04T20:08:06.737Z,8.10
2018-11-04T20:10:35.535Z,8.10
2018-11-04T20:13:10.228Z,8.10
2018-11-04T20:15:39.206Z,8.10
2018-11-04T20:18:13.219Z,8.10
2018-11-04T20:20:42.535Z,8.00
2018-11-04T20:23:11.362Z,7.80
2018-11-04T20:25:45.257Z,7.60
2018-11-04T20:28:13.581Z,7.50
2018-11-04T20:30:42.173Z,7.40
2018-11-04T20:33:12.689Z,7.30
2018-11-04T20:35:41.525Z,7.20
2018-11-04T20:38:10.406Z,7.20
2018-11-04T20:40:45.324Z,7.10
2018-11-04T20:43:13.881Z,7.10
2018-11-04T20:45:42.678Z,7.00
2018-11-04T20:48:16.893Z,6.90
2018-11-04T20:50:51.135Z,6.90
2018-11-04T20:53:20.368Z,6.80
2018-11-04T20:55:54.381Z,6.70
2018-11-04T20:58:23.179Z,6.70
2018-11-04T21:00:52.945Z,6.70
2018-11-04T21:03:21.591Z,6.60
2018-11-04T21:05:50.428Z,6.60
2018-11-04T21:08:19.595Z,6.60
2018-11-04T21:10:48.615Z,6.60
2018-11-04T21:13:18.499Z,6.60
2018-11-04T21:15:47.199Z,6.60
2018-11-04T21:18:16.720Z,6.60
2018-11-04T21:20:45.445Z,6.50
2018-11-04T21:23:14.389Z,6.60
2018-11-04T21:25:43.823Z,6.50
2018-11-04T21:28:13.050Z,6.50
2018-11-04T21:30:43.093Z,6.50
2018-11-04T21:33:11.970Z,6.40
2018-11-04T21:35:40.579Z,6.40
2018-11-04T21:38:10.064Z,6.50
2018-11-04T21:40:38.791Z,6.50
2018-11-04T21:43:07.760Z,6.50
2018-11-04T21:45:36.376Z,6.50
2018-11-04T21:48:05.050Z,6.50
2018-11-04T21:50:34.482Z,6.50
2018-11-04T21:53:04.901Z,6.40
2018-11-04T21:55:34.054Z,6.40
2018-11-04T21:58:03.095Z,6.40
2018-11-04T22:00:32.286Z,6.30
2018-11-04T22:03:00.696Z,6.20
2018-11-04T22:05:29.757Z,6.20
2018-11-04T22:07:58.119Z,6.10
2018-11-04T22:10:26.662Z,6.00
2018-11-04T22:12:55.061Z,6.00
2018-11-04T22:15:23.509Z,6.00
2018-11-04T22:17:51.731Z,5.90
2018-11-04T22:20:20.859Z,5.90
2018-11-04T22:22:49.996Z,6.00
2018-11-04T22:25:18.572Z,6.00
2018-11-04T22:27:47.454Z,6.00
2018-11-04T22:30:15.984Z,6.00
2018-11-04T22:32:44.564Z,5.90
2018-11-04T22:35:13.090Z,5.90
2018-11-04T22:37:41.871Z,5.90
2018-11-04T22:40:11.418Z,5.90
2018-11-04T22:42:40.279Z,5.80
2018-11-04T22:45:09.507Z,5.70
2018-11-04T22:47:38.062Z,5.70
2018-11-04T22:50:09.578Z,5.70
2018-11-04T22:52:38.286Z,5.60
2018-11-04T22:55:06.648Z,5.60
2018-11-04T22:57:34.874Z,5.50
2018-11-04T23:00:04.326Z,5.50
2018-11-04T23:02:33.518Z,5.50
2018-11-04T23:05:07.323Z,5.50
2018-11-04T23:07:36.738Z,5.50
2018-11-04T23:10:06.064Z,5.60
2018-11-04T23:12:34.789Z,5.60
2018-11-04T23:15:03.962Z,5.60
2018-11-04T23:17:33.334Z,5.60
2018-11-04T23:20:01.934Z,5.50
2018-11-04T23:22:31.374Z,5.50
2018-11-04T23:25:00.046Z,5.50
2018-11-04T23:27:28.996Z,5.50
2018-11-04T23:29:57.547Z,5.40
2018-11-04T23:32:25.858Z,5.50
2018-11-04T23:34:54.140Z,5.50
2018-11-04T23:37:22.725Z,5.50
2018-11-04T23:39:50.992Z,5.50
2018-11-04T23:42:19.174Z,5.50
2018-11-04T23:44:47.819Z,5.60
2018-11-04T23:47:16.564Z,5.60
2018-11-04T23:49:46.018Z,5.70
2018-11-04T23:52:14.434Z,5.70
2018-11-04T23:54:43.972Z,5.70
2018-11-04T23:57:12.362Z,5.80
2018-11-04T23:59:40.921Z,5.80
